sensor_id;sensor_type;location;lat;lon;timestamp;pressure;altitude;pressure_sealevel;temperature;humidity
69909;BME280;57190;47.918;8.112;2023-06-26T00:01:02;91126.91;;;17.36;52.16
69909;BME280;57190;47.918;8.112;2023-06-26T00:03:28;91125.13;;;17.31;52.34
69909;BME280;57190;47.918;8.112;2023-06-26T00:05:54;91130.81;;;17.29;52.71
69909;BME280;57190;47.918;8.112;2023-06-26T00:08:19;91122.53;;;17.40;52.81
69909;BME280;57190;47.918;8.112;2023-06-26T00:10:45;91134.03;;;17.32;53.83
69909;BME280;57190;47.918;8.112;2023-06-26T00:13:11;91117.72;;;17.37;52.91
69909;BME280;57190;47.918;8.112;2023-06-26T00:15:37;91127.03;;;17.31;52.66
69909;BME280;57190;47.918;8.112;2023-06-26T00:18:03;91122.75;;;17.29;53.72
69909;BME280;57190;47.918;8.112;2023-06-26T00:20:29;91119.16;;;17.20;53.26
69909;BME280;57190;47.918;8.112;2023-06-26T00:22:54;91120.44;;;17.09;53.85
69909;BME280;57190;47.918;8.112;2023-06-26T00:25:22;91115.75;;;17.01;54.63
69909;BME280;57190;47.918;8.112;2023-06-26T00:27:47;91112.59;;;16.99;54.76
69909;BME280;57190;47.918;8.112;2023-06-26T00:30:13;91126.13;;;16.93;55.49
69909;BME280;57190;47.918;8.112;2023-06-26T00:32:38;91125.03;;;16.94;55.02
69909;BME280;57190;47.918;8.112;2023-06-26T00:35:04;91122.34;;;16.94;55.46
69909;BME280;57190;47.918;8.112;2023-06-26T00:37:29;91117.81;;;16.90;55.47
69909;BME280;57190;47.918;8.112;2023-06-26T00:39:55;91124.09;;;16.85;55.76
69909;BME280;57190;47.918;8.112;2023-06-26T00:42:20;91122.03;;;16.82;56.43
69909;BME280;57190;47.918;8.112;2023-06-26T00:44:46;91114.16;;;16.86;56.42
69909;BME280;57190;47.918;8.112;2023-06-26T00:47:14;91117.03;;;16.89;56.68
69909;BME280;57190;47.918;8.112;2023-06-26T00:49:40;91120.91;;;16.83;56.94
69909;BME280;57190;47.918;8.112;2023-06-26T00:52:06;91122.75;;;17.02;57.39
69909;BME280;57190;47.918;8.112;2023-06-26T00:54:32;91117.56;;;17.05;56.57
69909;BME280;57190;47.918;8.112;2023-06-26T00:56:58;91115.75;;;17.01;56.82
69909;BME280;57190;47.918;8.112;2023-06-26T00:59:23;91120.06;;;17.02;56.96
69909;BME280;57190;47.918;8.112;2023-06-26T01:01:48;91120.25;;;17.05;56.55
69909;BME280;57190;47.918;8.112;2023-06-26T01:04:14;91122.66;;;17.07;57.20
69909;BME280;57190;47.918;8.112;2023-06-26T01:06:46;91119.56;;;17.00;57.95
69909;BME280;57190;47.918;8.112;2023-06-26T01:09:21;91119.78;;;17.03;57.91
69909;BME280;57190;47.918;8.112;2023-06-26T01:11:47;91114.19;;;17.00;58.25
69909;BME280;57190;47.918;8.112;2023-06-26T01:14:13;91123.38;;;16.99;58.58
69909;BME280;57190;47.918;8.112;2023-06-26T01:16:39;91116.25;;;17.03;58.15
69909;BME280;57190;47.918;8.112;2023-06-26T01:19:24;91116.25;;;17.03;57.86
69909;BME280;57190;47.918;8.112;2023-06-26T01:25:03;91117.34;;;17.02;58.30
69909;BME280;57190;47.918;8.112;2023-06-26T01:27:34;91113.38;;;16.99;58.46
69909;BME280;57190;47.918;8.112;2023-06-26T01:30:02;91115.63;;;16.92;58.89
69909;BME280;57190;47.918;8.112;2023-06-26T01:32:30;91107.56;;;16.78;59.25
69909;BME280;57190;47.918;8.112;2023-06-26T01:34:58;91110.84;;;16.61;59.73
69909;BME280;57190;47.918;8.112;2023-06-26T01:37:24;91106.94;;;16.53;60.56
69909;BME280;57190;47.918;8.112;2023-06-26T01:39:49;91106.63;;;16.55;60.34
69909;BME280;57190;47.918;8.112;2023-06-26T01:42:15;91111.13;;;16.59;60.08
69909;BME280;57190;47.918;8.112;2023-06-26T01:44:44;91110.91;;;16.56;59.81
69909;BME280;57190;47.918;8.112;2023-06-26T01:47:12;91110.03;;;16.60;59.82
69909;BME280;57190;47.918;8.112;2023-06-26T01:49:56;91102.56;;;16.57;59.88
69909;BME280;57190;47.918;8.112;2023-06-26T01:52:46;91103.31;;;16.44;60.31
69909;BME280;57190;47.918;8.112;2023-06-26T01:55:26;91109.09;;;16.37;60.81
69909;BME280;57190;47.918;8.112;2023-06-26T01:57:56;91113.31;;;16.43;60.35
69909;BME280;57190;47.918;8.112;2023-06-26T02:00:23;91096.84;;;16.45;60.11
69909;BME280;57190;47.918;8.112;2023-06-26T02:02:49;91108.50;;;16.40;60.62
69909;BME280;57190;47.918;8.112;2023-06-26T02:05:15;91113.97;;;16.35;60.65
69909;BME280;57190;47.918;8.112;2023-06-26T02:07:41;91111.56;;;16.33;61.19
69909;BME280;57190;47.918;8.112;2023-06-26T02:10:07;91108.47;;;16.26;61.16
69909;BME280;57190;47.918;8.112;2023-06-26T02:12:34;91105.72;;;16.12;61.38
69909;BME280;57190;47.918;8.112;2023-06-26T02:15:01;91109.31;;;16.08;61.85
69909;BME280;57190;47.918;8.112;2023-06-26T02:17:27;91106.41;;;16.04;61.98
69909;BME280;57190;47.918;8.112;2023-06-26T02:19:52;91101.31;;;16.02;61.83
69909;BME280;57190;47.918;8.112;2023-06-26T02:22:18;91106.50;;;15.99;61.75
69909;BME280;57190;47.918;8.112;2023-06-26T02:24:43;91110.50;;;16.01;61.87
69909;BME280;57190;47.918;8.112;2023-06-26T02:27:09;91106.19;;;16.00;61.68
69909;BME280;57190;47.918;8.112;2023-06-26T02:29:35;91105.03;;;16.07;61.05
69909;BME280;57190;47.918;8.112;2023-06-26T02:32:01;91109.28;;;16.27;60.35
69909;BME280;57190;47.918;8.112;2023-06-26T02:34:27;91107.09;;;16.43;60.17
69909;BME280;57190;47.918;8.112;2023-06-26T02:36:53;91106.53;;;16.46;59.40
69909;BME280;57190;47.918;8.112;2023-06-26T02:39:22;91118.06;;;16.46;59.50
69909;BME280;57190;47.918;8.112;2023-06-26T02:41:47;91114.69;;;16.41;59.60
69909;BME280;57190;47.918;8.112;2023-06-26T02:44:13;91115.59;;;16.36;59.71
69909;BME280;57190;47.918;8.112;2023-06-26T02:46:40;91111.56;;;16.33;59.75
69909;BME280;57190;47.918;8.112;2023-06-26T02:49:06;91108.97;;;16.28;59.94
69909;BME280;57190;47.918;8.112;2023-06-26T02:51:32;91112.25;;;16.25;59.63
69909;BME280;57190;47.918;8.112;2023-06-26T02:53:58;91112.03;;;16.22;60.03
69909;BME280;57190;47.918;8.112;2023-06-26T02:56:23;91111.66;;;16.28;59.71
69909;BME280;57190;47.918;8.112;2023-06-26T02:58:49;91112.00;;;16.41;59.92
69909;BME280;57190;47.918;8.112;2023-06-26T03:01:14;91119.09;;;16.50;59.06
69909;BME280;57190;47.918;8.112;2023-06-26T03:03:41;91120.50;;;16.48;58.54
69909;BME280;57190;47.918;8.112;2023-06-26T03:06:07;91120.19;;;16.49;57.87
69909;BME280;57190;47.918;8.112;2023-06-26T03:08:37;91121.97;;;16.40;58.60
69909;BME280;57190;47.918;8.112;2023-06-26T03:11:04;91120.72;;;16.18;59.75
69909;BME280;57190;47.918;8.112;2023-06-26T03:13:30;91112.81;;;16.08;60.70
69909;BME280;57190;47.918;8.112;2023-06-26T03:15:56;91109.44;;;16.16;60.21
69909;BME280;57190;47.918;8.112;2023-06-26T03:18:22;91121.59;;;16.14;59.88
69909;BME280;57190;47.918;8.112;2023-06-26T03:20:48;91110.31;;;16.12;59.42
69909;BME280;57190;47.918;8.112;2023-06-26T03:23:13;91115.13;;;16.15;59.64
69909;BME280;57190;47.918;8.112;2023-06-26T03:25:39;91115.44;;;16.27;59.45
69909;BME280;57190;47.918;8.112;2023-06-26T03:28:04;91115.69;;;16.45;58.71
69909;BME280;57190;47.918;8.112;2023-06-26T03:30:30;91118.38;;;16.45;58.27
69909;BME280;57190;47.918;8.112;2023-06-26T03:32:55;91118.00;;;16.52;57.91
69909;BME280;57190;47.918;8.112;2023-06-26T03:35:21;91107.84;;;16.62;58.06
69909;BME280;57190;47.918;8.112;2023-06-26T03:37:48;91107.06;;;16.62;57.17
69909;BME280;57190;47.918;8.112;2023-06-26T03:40:14;91111.13;;;16.73;56.95
69909;BME280;57190;47.918;8.112;2023-06-26T03:42:39;91111.66;;;16.75;56.57
69909;BME280;57190;47.918;8.112;2023-06-26T03:45:05;91112.22;;;16.58;57.72
69909;BME280;57190;47.918;8.112;2023-06-26T03:47:31;91111.81;;;16.51;58.05
69909;BME280;57190;47.918;8.112;2023-06-26T03:49:56;91115.78;;;16.40;58.01
69909;BME280;57190;47.918;8.112;2023-06-26T03:52:22;91118.34;;;16.31;58.09
69909;BME280;57190;47.918;8.112;2023-06-26T03:54:47;91116.06;;;16.38;57.89
69909;BME280;57190;47.918;8.112;2023-06-26T03:57:14;91122.31;;;16.53;57.64
69909;BME280;57190;47.918;8.112;2023-06-26T03:59:39;91123.19;;;16.48;57.21
69909;BME280;57190;47.918;8.112;2023-06-26T04:02:05;91121.28;;;16.48;57.01
69909;BME280;57190;47.918;8.112;2023-06-26T04:04:30;91122.69;;;16.46;57.27
69909;BME280;57190;47.918;8.112;2023-06-26T04:06:56;91125.09;;;16.61;57.09
69909;BME280;57190;47.918;8.112;2023-06-26T04:09:22;91117.81;;;16.62;56.89
69909;BME280;57190;47.918;8.112;2023-06-26T04:11:48;91127.88;;;16.56;57.40
69909;BME280;57190;47.918;8.112;2023-06-26T04:14:13;91117.22;;;16.65;57.91
69909;BME280;57190;47.918;8.112;2023-06-26T04:16:38;91117.53;;;16.77;57.04
69909;BME280;57190;47.918;8.112;2023-06-26T04:19:04;91114.19;;;17.00;56.46
69909;BME280;57190;47.918;8.112;2023-06-26T04:21:30;91120.34;;;17.14;56.64
69909;BME280;57190;47.918;8.112;2023-06-26T04:23:56;91119.97;;;17.07;58.37
69909;BME280;57190;47.918;8.112;2023-06-26T04:26:21;91123.06;;;17.00;59.17
69909;BME280;57190;47.918;8.112;2023-06-26T04:28:47;91122.28;;;17.00;59.53
69909;BME280;57190;47.918;8.112;2023-06-26T04:31:12;91130.31;;;17.13;59.20
69909;BME280;57190;47.918;8.112;2023-06-26T04:33:38;91122.34;;;17.22;59.01
69909;BME280;57190;47.918;8.112;2023-06-26T04:36:04;91127.03;;;17.31;59.07
69909;BME280;57190;47.918;8.112;2023-06-26T04:38:31;91122.16;;;17.33;60.28
69909;BME280;57190;47.918;8.112;2023-06-26T04:40:56;91121.91;;;17.43;60.91
69909;BME280;57190;47.918;8.112;2023-06-26T04:43:22;91130.38;;;17.50;61.00
69909;BME280;57190;47.918;8.112;2023-06-26T04:45:47;91126.31;;;17.89;60.26
69909;BME280;57190;47.918;8.112;2023-06-26T04:48:13;91124.09;;;17.91;60.00
69909;BME280;57190;47.918;8.112;2023-06-26T04:50:39;91128.69;;;17.91;59.95
69909;BME280;57190;47.918;8.112;2023-06-26T04:53:05;91131.63;;;17.81;60.81
69909;BME280;57190;47.918;8.112;2023-06-26T04:55:31;91131.69;;;17.89;61.12
69909;BME280;57190;47.918;8.112;2023-06-26T04:57:57;91127.59;;;17.92;61.39
69909;BME280;57190;47.918;8.112;2023-06-26T05:00:22;91128.63;;;17.96;61.24
69909;BME280;57190;47.918;8.112;2023-06-26T05:02:50;91127.63;;;18.15;60.30
69909;BME280;57190;47.918;8.112;2023-06-26T05:05:25;91132.28;;;18.23;60.60
69909;BME280;57190;47.918;8.112;2023-06-26T05:07:53;91125.88;;;18.64;59.20
69909;BME280;57190;47.918;8.112;2023-06-26T05:10:18;91124.50;;;18.76;59.02
69909;BME280;57190;47.918;8.112;2023-06-26T05:12:44;91128.53;;;18.56;59.53
69909;BME280;57190;47.918;8.112;2023-06-26T05:15:13;91125.69;;;18.61;59.49
69909;BME280;57190;47.918;8.112;2023-06-26T05:17:38;91120.19;;;18.66;59.79
69909;BME280;57190;47.918;8.112;2023-06-26T05:20:04;91120.03;;;18.71;58.59
69909;BME280;57190;47.918;8.112;2023-06-26T05:22:32;91124.75;;;18.65;59.04
69909;BME280;57190;47.918;8.112;2023-06-26T05:24:58;91134.13;;;18.59;59.90
69909;BME280;57190;47.918;8.112;2023-06-26T05:27:26;91130.75;;;18.53;60.08
69909;BME280;57190;47.918;8.112;2023-06-26T05:29:51;91137.59;;;18.60;60.62
69909;BME280;57190;47.918;8.112;2023-06-26T05:32:17;91136.56;;;18.69;60.77
69909;BME280;57190;47.918;8.112;2023-06-26T05:34:48;91127.22;;;18.76;60.92
69909;BME280;57190;47.918;8.112;2023-06-26T05:37:20;91126.63;;;18.88;61.60
69909;BME280;57190;47.918;8.112;2023-06-26T05:39:47;91124.00;;;18.96;61.58
69909;BME280;57190;47.918;8.112;2023-06-26T05:42:13;91131.78;;;18.98;61.72
69909;BME280;57190;47.918;8.112;2023-06-26T05:44:39;91128.66;;;19.13;61.62
69909;BME280;57190;47.918;8.112;2023-06-26T05:47:05;91124.09;;;19.31;60.75
69909;BME280;57190;47.918;8.112;2023-06-26T05:49:30;91117.31;;;19.43;60.25
69909;BME280;57190;47.918;8.112;2023-06-26T05:51:56;91121.63;;;19.61;59.77
69909;BME280;57190;47.918;8.112;2023-06-26T05:54:23;91117.19;;;19.74;60.04
69909;BME280;57190;47.918;8.112;2023-06-26T05:56:52;91121.19;;;19.86;59.82
69909;BME280;57190;47.918;8.112;2023-06-26T05:59:22;91123.28;;;19.89;59.67
69909;BME280;57190;47.918;8.112;2023-06-26T06:01:47;91125.53;;;19.95;58.92
69909;BME280;57190;47.918;8.112;2023-06-26T06:04:13;91125.53;;;19.95;59.39
69909;BME280;57190;47.918;8.112;2023-06-26T06:06:38;91121.38;;;19.98;59.45
69909;BME280;57190;47.918;8.112;2023-06-26T06:09:04;91122.19;;;20.07;59.27
69909;BME280;57190;47.918;8.112;2023-06-26T06:11:29;91120.56;;;20.15;59.58
69909;BME280;57190;47.918;8.112;2023-06-26T06:13:54;91119.31;;;20.21;59.22
69909;BME280;57190;47.918;8.112;2023-06-26T06:16:20;91122.81;;;20.31;60.49
69909;BME280;57190;47.918;8.112;2023-06-26T06:18:45;91119.44;;;20.42;60.65
69909;BME280;57190;47.918;8.112;2023-06-26T06:21:11;91123.88;;;20.56;60.60
69909;BME280;57190;47.918;8.112;2023-06-26T06:23:36;91127.19;;;20.70;59.53
69909;BME280;57190;47.918;8.112;2023-06-26T06:26:03;91128.16;;;20.83;58.55
69909;BME280;57190;47.918;8.112;2023-06-26T06:28:29;91123.50;;;20.93;58.67
69909;BME280;57190;47.918;8.112;2023-06-26T06:30:54;91125.38;;;21.01;58.25
69909;BME280;57190;47.918;8.112;2023-06-26T06:33:20;91133.31;;;21.15;58.04
69909;BME280;57190;47.918;8.112;2023-06-26T06:35:45;91127.53;;;21.25;57.02
69909;BME280;57190;47.918;8.112;2023-06-26T06:38:11;91129.34;;;21.42;56.55
69909;BME280;57190;47.918;8.112;2023-06-26T06:40:36;91124.53;;;21.48;56.17
69909;BME280;57190;47.918;8.112;2023-06-26T06:43:02;91123.22;;;21.54;54.82
69909;BME280;57190;47.918;8.112;2023-06-26T06:45:27;91131.84;;;21.65;54.02
69909;BME280;57190;47.918;8.112;2023-06-26T06:47:52;91120.13;;;21.73;53.65
69909;BME280;57190;47.918;8.112;2023-06-26T06:50:18;91125.03;;;21.80;53.74
69909;BME280;57190;47.918;8.112;2023-06-26T06:52:44;91125.16;;;21.83;53.85
69909;BME280;57190;47.918;8.112;2023-06-26T06:55:10;91123.06;;;21.89;52.32
69909;BME280;57190;47.918;8.112;2023-06-26T06:57:36;91130.94;;;22.03;51.79
69909;BME280;57190;47.918;8.112;2023-06-26T07:00:05;91133.28;;;22.13;52.16
69909;BME280;57190;47.918;8.112;2023-06-26T07:02:34;91130.69;;;22.17;51.78
69909;BME280;57190;47.918;8.112;2023-06-26T07:05:00;91132.28;;;22.18;51.34
69909;BME280;57190;47.918;8.112;2023-06-26T07:07:28;91130.94;;;22.24;51.39
69909;BME280;57190;47.918;8.112;2023-06-26T07:09:56;91132.00;;;22.32;51.45
69909;BME280;57190;47.918;8.112;2023-06-26T07:12:22;91136.44;;;22.37;51.24
69909;BME280;57190;47.918;8.112;2023-06-26T07:14:47;91135.13;;;22.43;51.10
69909;BME280;57190;47.918;8.112;2023-06-26T07:17:13;91131.22;;;22.53;51.26
69909;BME280;57190;47.918;8.112;2023-06-26T07:19:38;91141.22;;;22.61;51.00
69909;BME280;57190;47.918;8.112;2023-06-26T07:22:04;91140.66;;;22.68;50.32
69909;BME280;57190;47.918;8.112;2023-06-26T07:24:29;91147.47;;;22.74;50.89
69909;BME280;57190;47.918;8.112;2023-06-26T07:26:59;91146.06;;;22.89;50.49
69909;BME280;57190;47.918;8.112;2023-06-26T07:29:45;91147.13;;;23.09;49.04
69909;BME280;57190;47.918;8.112;2023-06-26T07:32:10;91154.53;;;23.21;49.31
69909;BME280;57190;47.918;8.112;2023-06-26T07:34:36;91146.97;;;23.27;49.14
69909;BME280;57190;47.918;8.112;2023-06-26T07:37:01;91147.88;;;23.31;48.34
69909;BME280;57190;47.918;8.112;2023-06-26T07:39:27;91143.69;;;23.33;47.97
69909;BME280;57190;47.918;8.112;2023-06-26T07:41:52;91152.63;;;23.34;48.62
69909;BME280;57190;47.918;8.112;2023-06-26T07:44:18;91146.06;;;23.35;48.48
69909;BME280;57190;47.918;8.112;2023-06-26T07:46:43;91154.56;;;23.46;48.09
69909;BME280;57190;47.918;8.112;2023-06-26T07:49:10;91154.34;;;23.51;48.14
69909;BME280;57190;47.918;8.112;2023-06-26T07:51:36;91150.59;;;23.55;48.45
69909;BME280;57190;47.918;8.112;2023-06-26T07:54:02;91156.28;;;23.50;46.53
69909;BME280;57190;47.918;8.112;2023-06-26T07:56:27;91152.31;;;23.48;45.90
69909;BME280;57190;47.918;8.112;2023-06-26T07:58:53;91156.75;;;23.52;46.81
69909;BME280;57190;47.918;8.112;2023-06-26T08:01:18;91148.56;;;23.52;45.68
69909;BME280;57190;47.918;8.112;2023-06-26T08:03:44;91149.03;;;23.54;45.61
69909;BME280;57190;47.918;8.112;2023-06-26T08:06:09;91146.53;;;23.62;45.73
69909;BME280;57190;47.918;8.112;2023-06-26T08:08:35;91149.59;;;23.73;45.92
69909;BME280;57190;47.918;8.112;2023-06-26T08:11:01;91149.03;;;23.79;44.62
69909;BME280;57190;47.918;8.112;2023-06-26T08:13:26;91149.03;;;23.79;44.71
69909;BME280;57190;47.918;8.112;2023-06-26T08:15:52;91150.84;;;23.88;44.80
69909;BME280;57190;47.918;8.112;2023-06-26T08:18:18;91147.88;;;23.93;45.24
69909;BME280;57190;47.918;8.112;2023-06-26T08:20:43;91146.53;;;23.99;45.00
69909;BME280;57190;47.918;8.112;2023-06-26T08:23:09;91154.69;;;24.11;44.87
69909;BME280;57190;47.918;8.112;2023-06-26T08:25:34;91154.09;;;24.18;44.14
69909;BME280;57190;47.918;8.112;2023-06-26T08:28:00;91147.97;;;24.21;44.32
69909;BME280;57190;47.918;8.112;2023-06-26T08:30:25;91158.84;;;24.33;44.87
69909;BME280;57190;47.918;8.112;2023-06-26T08:32:56;91146.13;;;24.38;44.09
69909;BME280;57190;47.918;8.112;2023-06-26T08:35:21;91142.66;;;24.53;43.78
69909;BME280;57190;47.918;8.112;2023-06-26T08:37:47;91147.16;;;24.74;44.36
69909;BME280;57190;47.918;8.112;2023-06-26T08:40:16;91142.09;;;24.88;43.85
69909;BME280;57190;47.918;8.112;2023-06-26T08:42:42;91144.91;;;24.92;43.76
69909;BME280;57190;47.918;8.112;2023-06-26T08:45:08;91152.91;;;24.85;42.75
69909;BME280;57190;47.918;8.112;2023-06-26T08:47:34;91147.16;;;24.74;43.04
69909;BME280;57190;47.918;8.112;2023-06-26T08:50:07;91145.06;;;24.83;43.26
69909;BME280;57190;47.918;8.112;2023-06-26T08:55:10;91149.59;;;25.07;44.54
69909;BME280;57190;47.918;8.112;2023-06-26T08:57:36;91148.19;;;24.98;44.10
69909;BME280;57190;47.918;8.112;2023-06-26T09:00:03;91147.72;;;24.95;43.07
69909;BME280;57190;47.918;8.112;2023-06-26T09:02:29;91149.41;;;25.00;43.41
69909;BME280;57190;47.918;8.112;2023-06-26T09:04:55;91140.53;;;25.03;42.95
69909;BME280;57190;47.918;8.112;2023-06-26T09:07:20;91142.31;;;25.11;42.75
69909;BME280;57190;47.918;8.112;2023-06-26T09:09:46;91144.72;;;25.29;42.77
69909;BME280;57190;47.918;8.112;2023-06-26T09:12:13;91141.13;;;25.41;41.63
69909;BME280;57190;47.918;8.112;2023-06-26T09:14:38;91150.72;;;25.51;41.46
69909;BME280;57190;47.918;8.112;2023-06-26T09:17:05;91143.50;;;25.42;42.79
69909;BME280;57190;47.918;8.112;2023-06-26T09:19:30;91150.69;;;25.19;42.35
69909;BME280;57190;47.918;8.112;2023-06-26T09:21:56;91154.81;;;25.28;42.41
69909;BME280;57190;47.918;8.112;2023-06-26T09:24:22;91144.59;;;25.09;43.05
69909;BME280;57190;47.918;8.112;2023-06-26T09:26:48;91151.19;;;24.92;42.68
69909;BME280;57190;47.918;8.112;2023-06-26T09:29:15;91148.72;;;25.03;42.51
69909;BME280;57190;47.918;8.112;2023-06-26T09:31:40;91154.47;;;25.14;43.47
69909;BME280;57190;47.918;8.112;2023-06-26T09:34:06;91153.97;;;25.24;42.53
69909;BME280;57190;47.918;8.112;2023-06-26T09:36:33;91153.72;;;25.62;42.55
69909;BME280;57190;47.918;8.112;2023-06-26T09:39:00;91161.41;;;25.56;43.40
69909;BME280;57190;47.918;8.112;2023-06-26T09:41:26;91159.91;;;25.42;43.76
69909;BME280;57190;47.918;8.112;2023-06-26T09:43:51;91163.38;;;25.27;44.40
69909;BME280;57190;47.918;8.112;2023-06-26T09:46:24;91160.16;;;25.53;44.06
69909;BME280;57190;47.918;8.112;2023-06-26T09:49:04;91157.88;;;25.55;44.05
69909;BME280;57190;47.918;8.112;2023-06-26T09:51:34;91159.47;;;25.56;44.45
69909;BME280;57190;47.918;8.112;2023-06-26T09:54:01;91166.50;;;25.57;44.71
69909;BME280;57190;47.918;8.112;2023-06-26T09:56:32;91168.06;;;25.26;45.00
69909;BME280;57190;47.918;8.112;2023-06-26T09:59:00;91165.28;;;25.10;46.18
69909;BME280;57190;47.918;8.112;2023-06-26T10:01:30;91174.28;;;24.83;46.53
69909;BME280;57190;47.918;8.112;2023-06-26T10:03:56;91172.16;;;24.63;47.19
69909;BME280;57190;47.918;8.112;2023-06-26T10:06:32;91174.22;;;24.54;47.70
69909;BME280;57190;47.918;8.112;2023-06-26T10:08:59;91170.00;;;24.57;47.87
69909;BME280;57190;47.918;8.112;2023-06-26T10:11:33;91185.28;;;24.45;48.84
69909;BME280;57190;47.918;8.112;2023-06-26T10:14:03;91184.63;;;24.36;49.67
69909;BME280;57190;47.918;8.112;2023-06-26T10:16:31;91183.53;;;24.12;49.81
69909;BME280;57190;47.918;8.112;2023-06-26T10:19:02;91188.75;;;24.05;49.85
69909;BME280;57190;47.918;8.112;2023-06-26T10:21:31;91186.69;;;23.90;50.89
69909;BME280;57190;47.918;8.112;2023-06-26T10:23:57;91195.06;;;24.34;50.59
69909;BME280;57190;47.918;8.112;2023-06-26T10:26:24;91190.25;;;24.68;49.75
69909;BME280;57190;47.918;8.112;2023-06-26T10:29:20;91202.47;;;24.87;50.32
69909;BME280;57190;47.918;8.112;2023-06-26T10:31:52;91201.91;;;24.28;49.73
69909;BME280;57190;47.918;8.112;2023-06-26T10:34:21;91204.16;;;23.76;50.92
69909;BME280;57190;47.918;8.112;2023-06-26T10:36:46;91206.88;;;23.51;51.83
69909;BME280;57190;47.918;8.112;2023-06-26T10:39:13;91205.50;;;23.45;52.57
69909;BME280;57190;47.918;8.112;2023-06-26T10:41:40;91205.50;;;23.58;52.62
69909;BME280;57190;47.918;8.112;2023-06-26T10:44:09;91218.94;;;23.88;51.72
69909;BME280;57190;47.918;8.112;2023-06-26T10:49:18;91215.31;;;24.21;51.98
69909;BME280;57190;47.918;8.112;2023-06-26T10:51:48;91214.38;;;23.67;51.85
69909;BME280;57190;47.918;8.112;2023-06-26T10:54:18;91210.91;;;23.33;53.20
69909;BME280;57190;47.918;8.112;2023-06-26T10:56:46;91221.69;;;23.08;53.86
69909;BME280;57190;47.918;8.112;2023-06-26T10:59:22;91216.91;;;23.05;54.43
69909;BME280;57190;47.918;8.112;2023-06-26T11:02:00;91216.81;;;23.35;53.11
69909;BME280;57190;47.918;8.112;2023-06-26T11:07:20;91210.66;;;24.21;52.86
69909;BME280;57190;47.918;8.112;2023-06-26T11:10:00;91216.63;;;24.52;52.25
69909;BME280;57190;47.918;8.112;2023-06-26T11:12:43;91210.47;;;24.67;52.14
69909;BME280;57190;47.918;8.112;2023-06-26T11:15:09;91213.69;;;24.85;51.64
69909;BME280;57190;47.918;8.112;2023-06-26T11:17:37;91215.44;;;24.65;51.69
69909;BME280;57190;47.918;8.112;2023-06-26T11:20:06;91217.53;;;24.43;51.87
69909;BME280;57190;47.918;8.112;2023-06-26T11:22:35;91210.59;;;24.46;50.56
69909;BME280;57190;47.918;8.112;2023-06-26T11:25:02;91211.94;;;24.64;52.28
69909;BME280;57190;47.918;8.112;2023-06-26T11:27:38;91214.44;;;24.70;51.79
69909;BME280;57190;47.918;8.112;2023-06-26T11:30:05;91211.69;;;24.82;52.53
69909;BME280;57190;47.918;8.112;2023-06-26T11:32:31;91214.31;;;24.78;50.79
69909;BME280;57190;47.918;8.112;2023-06-26T11:35:00;91211.69;;;24.82;50.94
69909;BME280;57190;47.918;8.112;2023-06-26T11:37:25;91209.50;;;24.88;51.54
69909;BME280;57190;47.918;8.112;2023-06-26T11:39:51;91211.81;;;25.02;50.85
69909;BME280;57190;47.918;8.112;2023-06-26T11:42:18;91203.94;;;25.13;50.14
69909;BME280;57190;47.918;8.112;2023-06-26T11:44:44;91208.19;;;25.26;49.75
69909;BME280;57190;47.918;8.112;2023-06-26T11:47:17;91218.50;;;25.33;49.45
69909;BME280;57190;47.918;8.112;2023-06-26T11:49:48;91205.75;;;25.37;48.86
69909;BME280;57190;47.918;8.112;2023-06-26T11:52:15;91219.09;;;25.54;49.72
69909;BME280;57190;47.918;8.112;2023-06-26T11:54:42;91210.38;;;25.65;49.78
69909;BME280;57190;47.918;8.112;2023-06-26T11:57:08;91216.91;;;25.76;49.47
69909;BME280;57190;47.918;8.112;2023-06-26T11:59:39;91218.06;;;25.75;50.09
69909;BME280;57190;47.918;8.112;2023-06-26T12:02:07;91220.88;;;25.79;50.55
69909;BME280;57190;47.918;8.112;2023-06-26T12:04:34;91212.03;;;25.53;49.21
69909;BME280;57190;47.918;8.112;2023-06-26T12:07:01;91210.16;;;24.97;50.53
69909;BME280;57190;47.918;8.112;2023-06-26T12:09:29;91218.94;;;24.90;52.02
69909;BME280;57190;47.918;8.112;2023-06-26T12:11:56;91221.03;;;24.56;51.67
69909;BME280;57190;47.918;8.112;2023-06-26T12:14:23;91212.91;;;24.19;52.51
69909;BME280;57190;47.918;8.112;2023-06-26T12:16:51;91213.16;;;24.01;52.29
69909;BME280;57190;47.918;8.112;2023-06-26T12:19:17;91219.72;;;23.88;53.12
69909;BME280;57190;47.918;8.112;2023-06-26T12:21:49;91218.94;;;23.88;54.37
69909;BME280;57190;47.918;8.112;2023-06-26T12:24:20;91209.72;;;24.42;53.07
69909;BME280;57190;47.918;8.112;2023-06-26T12:26:50;91215.19;;;24.83;51.88
69909;BME280;57190;47.918;8.112;2023-06-26T12:29:18;91202.81;;;25.42;51.11
69909;BME280;57190;47.918;8.112;2023-06-26T12:31:48;91206.59;;;25.69;49.92
69909;BME280;57190;47.918;8.112;2023-06-26T12:34:15;91208.97;;;26.03;49.34
69909;BME280;57190;47.918;8.112;2023-06-26T12:36:48;91216.72;;;25.53;49.95
69909;BME280;57190;47.918;8.112;2023-06-26T12:39:19;91207.34;;;25.09;50.59
69909;BME280;57190;47.918;8.112;2023-06-26T12:41:54;91200.69;;;25.51;51.20
69909;BME280;57190;47.918;8.112;2023-06-26T12:44:28;91205.88;;;25.88;50.95
69909;BME280;57190;47.918;8.112;2023-06-26T12:46:58;91201.84;;;26.14;50.43
69909;BME280;57190;47.918;8.112;2023-06-26T12:49:50;91203.66;;;26.26;49.54
69909;BME280;57190;47.918;8.112;2023-06-26T12:52:16;91205.19;;;26.59;48.74
69909;BME280;57190;47.918;8.112;2023-06-26T12:54:44;91212.00;;;26.85;48.51
69909;BME280;57190;47.918;8.112;2023-06-26T12:57:10;91204.81;;;26.96;48.16
69909;BME280;57190;47.918;8.112;2023-06-26T12:59:37;91209.97;;;26.11;48.80
69909;BME280;57190;47.918;8.112;2023-06-26T13:02:03;91197.25;;;26.18;48.31
69909;BME280;57190;47.918;8.112;2023-06-26T13:04:29;91198.44;;;26.37;48.17
69909;BME280;57190;47.918;8.112;2023-06-26T13:06:55;91203.50;;;26.55;47.96
69909;BME280;57190;47.918;8.112;2023-06-26T13:09:21;91207.56;;;26.61;47.78
69909;BME280;57190;47.918;8.112;2023-06-26T13:11:47;91207.53;;;26.77;48.23